createdAt,value
2019-01-26T00:01:29.590Z,28.87
2019-01-26T00:04:15.313Z,31.23
2019-01-26T00:07:15.525Z,27.83
2019-01-26T00:09:47.548Z,27.73
2019-01-26T00:12:19.630Z,29.00
2019-01-26T00:14:51.601Z,29.77
2019-01-26T00:17:23.626Z,28.80
2019-01-26T00:19:55.579Z,27.13
2019-01-26T00:22:27.663Z,27.87
2019-01-26T00:24:59.726Z,28.00
2019-01-26T00:27:33.881Z,27.97
2019-01-26T00:30:06.725Z,27.77
2019-01-26T00:32:38.720Z,27.37
2019-01-26T00:35:10.756Z,28.27
2019-01-26T00:37:42.774Z,27.80
2019-01-26T00:40:15.735Z,27.13
2019-01-26T00:43:01.281Z,26.03
2019-01-26T00:45:33.321Z,27.23
2019-01-26T00:48:05.280Z,27.93
2019-01-26T00:50:37.267Z,26.80
2019-01-26T00:53:09.242Z,26.70
2019-01-26T00:55:41.288Z,27.57
2019-01-26T00:58:13.274Z,25.07
2019-01-26T01:00:45.302Z,26.83
2019-01-26T01:03:17.336Z,26.33
2019-01-26T01:05:49.275Z,25.60
2019-01-26T01:08:21.335Z,25.37
2019-01-26T01:10:53.294Z,26.63
2019-01-26T01:13:25.315Z,26.70
2019-01-26T01:15:57.292Z,26.03
2019-01-26T01:18:29.278Z,27.03
2019-01-26T01:21:01.902Z,26.70
2019-01-26T01:23:34.046Z,26.93
2019-01-26T01:26:06.129Z,27.10
2019-01-26T01:28:38.174Z,28.60
2019-01-26T01:31:10.150Z,27.17
2019-01-26T01:33:42.097Z,26.53
2019-01-26T01:36:14.119Z,27.10
2019-01-26T01:38:46.148Z,27.40
2019-01-26T01:41:18.144Z,26.10
2019-01-26T01:43:50.114Z,26.80
2019-01-26T01:46:25.386Z,27.07
2019-01-26T01:48:57.388Z,27.30
2019-01-26T01:51:29.393Z,27.47
2019-01-26T01:54:02.117Z,27.13
2019-01-26T01:56:34.713Z,26.53
2019-01-26T01:59:08.994Z,26.13
2019-01-26T02:01:40.996Z,26.87
2019-01-26T02:04:12.988Z,27.27
2019-01-26T02:07:17.499Z,28.97
2019-01-26T02:09:55.821Z,25.27
2019-01-26T02:12:33.590Z,26.77
2019-01-26T02:15:06.003Z,26.90
2019-01-26T02:17:37.974Z,29.10
2019-01-26T02:20:13.168Z,25.57
2019-01-26T02:22:48.486Z,27.23
2019-01-26T02:25:21.141Z,27.10
2019-01-26T02:27:53.132Z,27.00
2019-01-26T02:30:39.149Z,25.57
2019-01-26T02:33:11.109Z,24.73
2019-01-26T02:35:43.200Z,25.80
2019-01-26T02:38:15.188Z,25.13
2019-01-26T02:40:53.766Z,26.70
2019-01-26T02:43:29.175Z,25.87
2019-01-26T02:46:01.318Z,26.43
2019-01-26T02:48:33.367Z,26.37
2019-01-26T02:51:05.445Z,30.27
2019-01-26T02:53:37.459Z,30.87
2019-01-26T02:56:09.478Z,29.97
2019-01-26T02:58:41.526Z,27.90
2019-01-26T03:01:19.267Z,26.50
2019-01-26T03:03:56.033Z,28.63
2019-01-26T03:06:28.122Z,29.10
2019-01-26T03:09:00.195Z,27.53
2019-01-26T03:11:36.688Z,28.20
2019-01-26T03:14:12.058Z,29.20
2019-01-26T03:16:47.173Z,26.63
2019-01-26T03:19:19.180Z,26.77
2019-01-26T03:21:51.131Z,26.03
2019-01-26T03:24:23.187Z,27.77
2019-01-26T03:26:55.257Z,28.07
2019-01-26T03:29:31.488Z,27.03
2019-01-26T03:32:03.433Z,28.17
2019-01-26T03:34:35.381Z,27.07
2019-01-26T03:37:07.421Z,26.63
2019-01-26T03:39:39.388Z,27.03
2019-01-26T03:42:11.422Z,27.23
2019-01-26T03:44:43.383Z,26.83
2019-01-26T03:47:15.380Z,26.33
2019-01-26T03:49:47.429Z,26.57
2019-01-26T03:52:19.469Z,26.17
2019-01-26T03:54:51.416Z,26.43
2019-01-26T03:57:23.439Z,26.90
2019-01-26T03:59:55.438Z,27.43
2019-01-26T04:02:27.469Z,25.10
2019-01-26T04:04:59.443Z,26.37
2019-01-26T04:07:31.431Z,24.97
2019-01-26T04:10:03.424Z,25.70
2019-01-26T04:12:35.491Z,26.03
2019-01-26T04:15:11.860Z,26.27
2019-01-26T04:17:44.233Z,24.50
2019-01-26T04:20:18.314Z,26.00
2019-01-26T04:22:50.330Z,26.10
2019-01-26T04:25:22.333Z,26.07
2019-01-26T04:27:54.331Z,25.73
2019-01-26T04:30:26.308Z,26.47
2019-01-26T04:32:58.347Z,25.10
2019-01-26T04:35:30.323Z,27.30
2019-01-26T04:38:02.288Z,26.23
2019-01-26T04:40:34.392Z,26.20
2019-01-26T04:43:06.411Z,28.77
2019-01-26T04:45:39.698Z,26.07
2019-01-26T04:48:11.661Z,26.17
2019-01-26T04:50:43.628Z,26.47
2019-01-26T04:53:31.735Z,24.87
2019-01-26T04:56:03.702Z,27.43
2019-01-26T04:58:35.808Z,23.93
2019-01-26T05:01:07.896Z,28.07
2019-01-26T05:03:42.982Z,25.23
2019-01-26T05:06:14.996Z,24.50
2019-01-26T05:08:47.200Z,26.03
2019-01-26T05:11:19.159Z,25.67
2019-01-26T05:13:51.417Z,26.27
2019-01-26T05:16:23.491Z,25.50
2019-01-26T05:18:55.444Z,25.77
2019-01-26T05:21:27.379Z,27.13
2019-01-26T05:23:59.421Z,26.10
2019-01-26T05:26:31.468Z,26.07
2019-01-26T05:29:03.475Z,25.33
2019-01-26T05:31:35.561Z,25.93
2019-01-26T05:34:07.549Z,26.60
2019-01-26T05:36:40.617Z,26.73
2019-01-26T05:39:12.924Z,28.40
2019-01-26T05:41:44.964Z,26.20
2019-01-26T05:44:16.915Z,26.03
2019-01-26T05:46:48.912Z,27.30
2019-01-26T05:49:20.868Z,27.30
2019-01-26T05:51:52.914Z,28.30
2019-01-26T05:54:24.907Z,27.20
2019-01-26T05:56:56.988Z,26.27
2019-01-26T05:59:29.151Z,27.27
2019-01-26T06:02:01.381Z,30.63
2019-01-26T06:04:33.368Z,31.53
2019-01-26T06:07:05.412Z,29.33
2019-01-26T06:09:37.378Z,27.07
2019-01-26T06:12:09.502Z,29.53
2019-01-26T06:14:41.589Z,33.63
2019-01-26T06:17:13.589Z,29.37
2019-01-26T06:19:45.544Z,28.80
2019-01-26T06:22:17.537Z,28.40
2019-01-26T06:24:49.486Z,26.67
2019-01-26T06:27:21.598Z,28.07
2019-01-26T06:29:53.645Z,27.67
2019-01-26T06:32:25.834Z,28.17
2019-01-26T06:34:57.781Z,30.57
2019-01-26T06:37:29.811Z,34.73
2019-01-26T06:40:01.825Z,31.50
2019-01-26T06:42:33.784Z,30.67
2019-01-26T06:45:06.183Z,30.90
2019-01-26T06:47:38.194Z,28.40
2019-01-26T06:50:13.067Z,28.43
2019-01-26T06:52:45.131Z,33.90
2019-01-26T06:55:17.153Z,35.80
2019-01-26T06:57:49.112Z,33.07
2019-01-26T07:00:27.394Z,35.70
2019-01-26T07:02:59.418Z,33.00
2019-01-26T07:05:56.158Z,30.93
2019-01-26T07:08:28.139Z,27.77
2019-01-26T07:11:00.154Z,26.83
2019-01-26T07:13:32.294Z,28.77
2019-01-26T07:16:04.289Z,31.33
2019-01-26T07:18:36.434Z,31.70
2019-01-26T07:21:08.488Z,31.57
2019-01-26T07:23:40.534Z,34.10
2019-01-26T07:26:12.554Z,29.43
2019-01-26T07:28:44.526Z,30.90
2019-01-26T07:31:16.593Z,30.80
2019-01-26T07:33:48.621Z,28.60
2019-01-26T07:36:20.697Z,25.73
2019-01-26T07:38:52.675Z,27.47
2019-01-26T07:41:24.617Z,27.43
2019-01-26T07:43:59.559Z,27.30
2019-01-26T07:46:31.523Z,25.73
2019-01-26T07:49:03.500Z,28.10
2019-01-26T07:51:35.501Z,27.23
2019-01-26T07:54:07.539Z,39.80
2019-01-26T07:56:39.602Z,31.07
2019-01-26T07:59:11.650Z,43.80
2019-01-26T08:01:43.614Z,29.67
2019-01-26T08:04:15.640Z,25.87
2019-01-26T08:06:49.240Z,24.53
2019-01-26T08:09:24.296Z,29.77
2019-01-26T08:11:56.282Z,30.33
2019-01-26T08:14:28.205Z,25.90
2019-01-26T08:17:00.225Z,24.73
2019-01-26T08:19:32.223Z,25.50
2019-01-26T08:22:04.228Z,23.83
2019-01-26T08:24:36.213Z,22.10
2019-01-26T08:27:08.442Z,21.87
2019-01-26T08:29:40.567Z,22.03
2019-01-26T08:32:13.623Z,23.73
2019-01-26T08:34:45.730Z,22.67
2019-01-26T08:37:17.729Z,23.73
2019-01-26T08:39:49.717Z,22.07
2019-01-26T08:42:21.689Z,22.67
2019-01-26T08:44:53.815Z,22.70
2019-01-26T08:50:54.734Z,24.40
2019-01-26T08:53:26.818Z,23.23
2019-01-26T08:55:58.802Z,23.87
2019-01-26T08:58:30.935Z,23.90
2019-01-26T09:01:02.959Z,23.33
2019-01-26T09:03:48.065Z,23.53
2019-01-26T09:06:30.156Z,23.97
2019-01-26T09:09:03.412Z,22.63
2019-01-26T09:11:36.039Z,23.60
2019-01-26T09:14:09.600Z,24.77
2019-01-26T09:16:41.666Z,23.37
2019-01-26T09:19:13.783Z,24.53
2019-01-26T09:21:47.597Z,23.80
2019-01-26T09:24:19.755Z,23.43
2019-01-26T09:26:51.762Z,24.80
2019-01-26T09:29:24.237Z,24.87
2019-01-26T09:31:56.217Z,26.17
2019-01-26T09:34:28.221Z,24.93
2019-01-26T09:37:00.374Z,23.73
2019-01-26T09:39:32.453Z,30.07
2019-01-26T09:42:04.506Z,28.07
2019-01-26T09:44:36.990Z,28.77
2019-01-26T09:47:08.942Z,27.50
2019-01-26T09:49:40.896Z,29.23
2019-01-26T09:52:12.941Z,30.77
2019-01-26T09:54:44.880Z,33.57
2019-01-26T09:57:16.962Z,33.30
2019-01-26T09:59:48.914Z,35.27
2019-01-26T10:02:20.902Z,38.13
2019-01-26T10:04:52.995Z,29.43
2019-01-26T10:07:25.054Z,28.80
2019-01-26T10:09:57.176Z,27.83
2019-01-26T10:12:29.197Z,31.30
2019-01-26T10:15:01.237Z,29.40
2019-01-26T10:17:33.364Z,26.27
2019-01-26T10:20:07.609Z,25.40
2019-01-26T10:22:39.610Z,22.40
2019-01-26T10:25:12.175Z,22.90
2019-01-26T10:27:44.193Z,25.27
2019-01-26T10:30:24.658Z,25.87
2019-01-26T10:32:57.736Z,24.70
2019-01-26T10:35:47.682Z,26.03
2019-01-26T10:38:19.913Z,24.00
2019-01-26T10:41:09.558Z,23.73
2019-01-26T10:43:45.737Z,23.87
2019-01-26T10:46:17.745Z,22.87
2019-01-26T10:48:49.716Z,25.63
2019-01-26T10:51:21.730Z,23.50
2019-01-26T11:15:09.025Z,29.27
2019-01-26T11:17:41.094Z,29.90
2019-01-26T11:20:13.104Z,30.10
2019-01-26T11:22:45.130Z,29.27
2019-01-26T11:25:17.209Z,28.53
2019-01-26T11:27:49.289Z,29.13
2019-01-26T11:30:22.999Z,27.93
2019-01-26T11:32:55.079Z,28.97
2019-01-26T11:35:27.039Z,28.37
2019-01-26T11:37:59.111Z,27.27
2019-01-26T11:41:09.677Z,24.83
2019-01-26T11:43:42.014Z,25.47
2019-01-26T11:46:25.800Z,25.23
2019-01-26T11:48:58.835Z,26.40
2019-01-26T11:51:38.270Z,26.13
2019-01-26T11:54:10.330Z,24.47
2019-01-26T11:56:51.074Z,25.53
2019-01-26T11:59:23.232Z,25.27
2019-01-26T12:02:17.254Z,26.30
2019-01-26T12:04:53.616Z,26.00
2019-01-26T12:07:28.436Z,27.37
2019-01-26T12:10:00.499Z,26.87
2019-01-26T12:12:32.564Z,26.07
2019-01-26T12:15:05.210Z,25.77
2019-01-26T12:17:37.215Z,26.67
2019-01-26T12:20:12.104Z,27.03
2019-01-26T12:22:44.206Z,27.27
2019-01-26T12:25:16.251Z,29.50
2019-01-26T12:27:48.266Z,30.03
2019-01-26T12:30:21.475Z,28.60
2019-01-26T12:32:53.557Z,28.83
2019-01-26T12:35:41.183Z,30.30
2019-01-26T12:38:11.876Z,30.13
2019-01-26T12:40:43.863Z,30.17
2019-01-26T12:43:16.015Z,29.03
2019-01-26T12:45:52.028Z,27.93
2019-01-26T12:48:26.093Z,29.77
2019-01-26T12:51:08.906Z,27.20
2019-01-26T12:53:49.386Z,29.27
2019-01-26T12:56:24.647Z,29.50
2019-01-26T12:58:58.774Z,26.40
2019-01-26T13:01:30.957Z,27.27
2019-01-26T13:04:03.194Z,26.13
2019-01-26T13:06:35.271Z,25.87
2019-01-26T13:09:10.201Z,26.63
2019-01-26T13:11:44.070Z,25.57
2019-01-26T13:14:16.303Z,26.33
2019-01-26T13:16:48.297Z,26.00
2019-01-26T13:19:20.349Z,25.33
2019-01-26T13:21:52.367Z,25.97
2019-01-26T13:24:24.412Z,23.87
2019-01-26T13:26:56.477Z,25.60
2019-01-26T13:29:28.646Z,25.03
2019-01-26T13:32:00.755Z,25.07
2019-01-26T13:34:34.312Z,23.27
2019-01-26T13:37:12.299Z,25.53
2019-01-26T13:39:50.588Z,23.97
2019-01-26T13:42:34.499Z,24.47
2019-01-26T13:45:34.180Z,24.43
2019-01-26T13:48:06.320Z,24.77
2019-01-26T13:50:38.608Z,24.50
2019-01-26T13:53:10.946Z,25.03
2019-01-26T13:55:43.050Z,25.23
2019-01-26T13:58:15.154Z,25.27
2019-01-26T14:00:47.276Z,25.13
2019-01-26T14:03:19.372Z,26.50
2019-01-26T14:05:51.394Z,25.73
2019-01-26T14:08:23.521Z,25.40
2019-01-26T14:10:55.481Z,24.97
2019-01-26T14:13:27.545Z,25.80
2019-01-26T14:15:59.554Z,26.47
2019-01-26T14:18:31.659Z,25.40
2019-01-26T14:21:59.123Z,26.07
2019-01-26T14:25:00.061Z,26.70
2019-01-26T14:32:42.484Z,24.97
2019-01-26T14:35:18.732Z,25.90
2019-01-26T14:37:54.407Z,25.30
2019-01-26T14:52:48.882Z,27.20
2019-01-26T15:03:53.748Z,25.77
2019-01-26T15:06:52.350Z,27.60
2019-01-26T15:17:39.456Z,26.53
2019-01-26T15:24:22.413Z,25.40
2019-01-26T15:35:01.418Z,26.00
2019-01-26T15:38:51.309Z,27.03
2019-01-26T15:41:51.495Z,26.43
2019-01-26T15:45:28.634Z,27.07
2019-01-26T15:48:55.894Z,26.57
2019-01-26T15:59:37.846Z,27.93
2019-01-26T16:02:48.898Z,27.03
2019-01-26T16:06:24.152Z,28.30
2019-01-26T16:09:28.977Z,28.63
2019-01-26T16:12:27.632Z,29.13
2019-01-26T16:15:53.784Z,27.17
2019-01-26T16:22:38.805Z,28.17
2019-01-26T16:25:47.568Z,27.17
2019-01-26T16:29:17.527Z,26.67
2019-01-26T16:32:49.324Z,26.73
2019-01-26T16:36:25.477Z,28.43
2019-01-26T16:43:19.329Z,30.53
2019-01-26T16:46:30.525Z,32.67
2019-01-26T16:49:41.517Z,32.73
2019-01-26T16:58:27.690Z,32.30
2019-01-26T17:00:42.988Z,33.93
2019-01-26T17:03:54.549Z,32.60
2019-01-26T17:07:12.909Z,34.07
2019-01-26T17:14:57.381Z,32.97
2019-01-26T17:18:13.835Z,32.60
2019-01-26T17:21:45.007Z,35.27
2019-01-26T17:27:59.333Z,35.00
2019-01-26T17:30:51.406Z,42.20
2019-01-26T17:31:23.011Z,34.87
2019-01-26T17:37:22.132Z,54.77
2019-01-26T17:43:25.405Z,70.00
2019-01-26T17:46:14.180Z,71.10
2019-01-26T17:49:17.370Z,70.23
2019-01-26T17:52:06.625Z,70.80
2019-01-26T17:55:53.270Z,75.07
2019-01-26T17:59:28.698Z,61.97
2019-01-26T18:02:00.729Z,61.53
2019-01-26T18:05:19.125Z,60.37
2019-01-26T18:16:25.914Z,73.63
2019-01-26T18:19:11.656Z,57.90
2019-01-26T18:34:06.062Z,64.53
2019-01-26T18:41:23.840Z,62.00
2019-01-26T18:51:54.445Z,63.97
2019-01-26T18:56:04.565Z,69.00
2019-01-26T18:59:05.905Z,65.10
2019-01-26T19:01:46.896Z,51.83
2019-01-26T19:04:29.717Z,54.07
2019-01-26T19:07:06.947Z,55.43
2019-01-26T19:24:51.629Z,48.60
2019-01-26T19:28:06.268Z,39.53
2019-01-26T19:39:50.694Z,39.98
2019-01-26T19:43:09.380Z,36.53
2019-01-26T19:46:20.461Z,34.40
2019-01-26T19:49:11.514Z,33.87
2019-01-26T19:52:33.676Z,32.83
2019-01-26T19:55:26.732Z,35.40
2019-01-26T19:58:34.645Z,39.73
2019-01-26T20:01:09.126Z,42.07
2019-01-26T20:03:44.881Z,43.57
2019-01-26T20:06:22.558Z,42.67
2019-01-26T20:09:15.881Z,44.10
2019-01-26T20:11:50.268Z,42.90
2019-01-26T20:15:12.549Z,43.63
2019-01-26T20:17:15.202Z,41.97
2019-01-26T20:20:08.795Z,37.20
2019-01-26T20:22:46.542Z,34.53
2019-01-26T20:25:25.865Z,40.70
2019-01-26T20:27:59.028Z,39.97
2019-01-26T20:30:38.484Z,40.23
2019-01-26T20:33:11.388Z,43.50
2019-01-26T20:35:44.138Z,41.73
2019-01-26T20:38:21.385Z,38.00
2019-01-26T20:40:57.441Z,35.27
2019-01-26T20:43:33.294Z,35.90
2019-01-26T20:46:11.808Z,36.93
2019-01-26T20:49:05.807Z,37.17
2019-01-26T20:51:42.971Z,49.97
2019-01-26T20:54:27.469Z,43.53
2019-01-26T20:57:01.303Z,44.13
2019-01-26T20:59:36.413Z,41.83
2019-01-26T21:02:09.576Z,40.93
2019-01-26T21:04:53.646Z,41.47
2019-01-26T21:08:21.262Z,39.03
2019-01-26T21:11:42.023Z,36.43
2019-01-26T21:14:51.331Z,38.23
2019-01-26T21:18:03.242Z,38.60
2019-01-26T21:20:51.075Z,34.73
2019-01-26T21:24:00.119Z,37.63
2019-01-26T21:27:17.106Z,36.80
2019-01-26T21:30:10.938Z,36.30
2019-01-26T21:33:12.348Z,38.80
2019-01-26T21:35:55.260Z,35.63
2019-01-26T21:38:45.446Z,35.67
2019-01-26T21:42:40.582Z,36.73
2019-01-26T21:45:04.266Z,32.50
2019-01-26T21:48:00.345Z,33.90
2019-01-26T21:50:32.030Z,32.63
2019-01-26T21:53:18.972Z,32.60
2019-01-26T21:55:52.618Z,33.17
2019-01-26T21:58:27.838Z,33.20
2019-01-26T22:01:00.073Z,37.83
2019-01-26T22:03:35.340Z,31.93
2019-01-26T22:06:20.526Z,33.70
2019-01-26T22:08:58.689Z,34.23
2019-01-26T22:11:37.423Z,34.07
2019-01-26T22:14:10.975Z,36.60
2019-01-26T22:16:43.580Z,38.90
2019-01-26T22:19:21.740Z,38.60
2019-01-26T22:21:55.162Z,38.83
2019-01-26T22:24:28.757Z,37.50
2019-01-26T22:27:01.057Z,34.83
2019-01-26T22:29:33.827Z,35.60
2019-01-26T22:32:06.675Z,32.33
2019-01-26T22:34:38.833Z,32.70
2019-01-26T22:37:10.940Z,32.70
2019-01-26T22:39:43.120Z,32.33
2019-01-26T22:42:15.291Z,33.73
2019-01-26T23:07:22.591Z,32.57
2019-01-26T23:11:00.225Z,31.77
2019-01-26T23:14:35.764Z,30.60
2019-01-26T23:18:00.188Z,32.73
2019-01-26T23:21:08.461Z,31.30
2019-01-26T23:24:21.871Z,32.53
2019-01-26T23:27:28.454Z,37.27
2019-01-26T23:30:42.718Z,37.30
2019-01-26T23:33:14.729Z,40.93
2019-01-26T23:35:46.836Z,38.47
2019-01-26T23:38:21.210Z,37.57
2019-01-26T23:40:55.503Z,44.83
2019-01-26T23:43:29.981Z,45.77
2019-01-26T23:46:02.159Z,37.60
2019-01-26T23:48:34.413Z,35.87
2019-01-26T23:51:06.485Z,35.87
2019-01-26T23:53:38.469Z,35.87
2019-01-26T23:56:10.608Z,35.37
2019-01-26T23:58:42.614Z,37.37
